sensor_id;sensor_type;location;lat;lon;timestamp;P1;durP1;ratioP1;P2;durP2;ratioP2
495;SDS011;39559;48.630;9.162;2022-11-12T00:01:04;18.90;;;14.23;;
495;SDS011;39559;48.630;9.162;2022-11-12T00:03:31;19.80;;;15.38;;
495;SDS011;39559;48.630;9.162;2022-11-12T00:05:57;20.60;;;14.30;;
495;SDS011;39559;48.630;9.162;2022-11-12T00:08:23;23.25;;;17.48;;
495;SDS011;39559;48.630;9.162;2022-11-12T00:12:55;21.48;;;16.63;;
495;SDS011;39559;48.630;9.162;2022-11-12T00:15:21;27.10;;;15.47;;
495;SDS011;39559;48.630;9.162;2022-11-12T00:17:47;26.97;;;14.27;;
495;SDS011;39559;48.630;9.162;2022-11-12T00:20:13;30.40;;;14.20;;
495;SDS011;39559;48.630;9.162;2022-11-12T00:22:39;25.75;;;15.00;;
495;SDS011;39559;48.630;9.162;2022-11-12T00:25:05;24.33;;;16.47;;
495;SDS011;39559;48.630;9.162;2022-11-12T00:27:31;35.35;;;16.65;;
495;SDS011;39559;48.630;9.162;2022-11-12T00:29:57;23.25;;;15.45;;
495;SDS011;39559;48.630;9.162;2022-11-12T00:32:23;50.10;;;18.87;;
495;SDS011;39559;48.630;9.162;2022-11-12T00:36:56;28.02;;;15.45;;
495;SDS011;39559;48.630;9.162;2022-11-12T00:39:21;35.27;;;15.93;;
495;SDS011;39559;48.630;9.162;2022-11-12T00:41:47;25.47;;;14.87;;
495;SDS011;39559;48.630;9.162;2022-11-12T00:44:12;32.80;;;15.50;;
495;SDS011;39559;48.630;9.162;2022-11-12T00:46:38;25.93;;;14.70;;
495;SDS011;39559;48.630;9.162;2022-11-12T00:49:03;60.37;;;16.40;;
495;SDS011;39559;48.630;9.162;2022-11-12T00:51:29;32.53;;;14.97;;
495;SDS011;39559;48.630;9.162;2022-11-12T00:53:54;32.37;;;14.90;;
495;SDS011;39559;48.630;9.162;2022-11-12T00:56:20;49.27;;;16.70;;
495;SDS011;39559;48.630;9.162;2022-11-12T01:00:56;59.30;;;17.10;;
495;SDS011;39559;48.630;9.162;2022-11-12T01:03:22;61.38;;;18.50;;
495;SDS011;39559;48.630;9.162;2022-11-12T01:05:48;55.75;;;18.35;;
495;SDS011;39559;48.630;9.162;2022-11-12T01:08:14;70.40;;;19.43;;
495;SDS011;39559;48.630;9.162;2022-11-12T01:10:39;74.97;;;16.93;;
495;SDS011;39559;48.630;9.162;2022-11-12T01:13:05;93.40;;;18.43;;
495;SDS011;39559;48.630;9.162;2022-11-12T01:15:30;42.73;;;17.27;;
495;SDS011;39559;48.630;9.162;2022-11-12T01:17:56;54.07;;;17.27;;
495;SDS011;39559;48.630;9.162;2022-11-12T01:20:21;48.50;;;16.33;;
495;SDS011;39559;48.630;9.162;2022-11-12T01:24:56;32.40;;;15.40;;
495;SDS011;39559;48.630;9.162;2022-11-12T01:27:22;23.73;;;14.93;;
495;SDS011;39559;48.630;9.162;2022-11-12T01:29:48;36.63;;;13.80;;
495;SDS011;39559;48.630;9.162;2022-11-12T01:32:13;40.87;;;15.60;;
495;SDS011;39559;48.630;9.162;2022-11-12T01:34:39;33.00;;;14.30;;
495;SDS011;39559;48.630;9.162;2022-11-12T01:37:04;39.47;;;15.50;;
495;SDS011;39559;48.630;9.162;2022-11-12T01:39:30;39.20;;;15.93;;
495;SDS011;39559;48.630;9.162;2022-11-12T01:41:55;28.60;;;14.30;;
495;SDS011;39559;48.630;9.162;2022-11-12T01:44:22;23.10;;;13.10;;
495;SDS011;39559;48.630;9.162;2022-11-12T01:48:57;27.60;;;13.35;;
495;SDS011;39559;48.630;9.162;2022-11-12T01:51:28;30.83;;;13.32;;
495;SDS011;39559;48.630;9.162;2022-11-12T01:53:59;21.80;;;13.50;;
495;SDS011;39559;48.630;9.162;2022-11-12T01:56:28;32.95;;;15.43;;
495;SDS011;39559;48.630;9.162;2022-11-12T01:58:58;88.38;;;18.27;;
495;SDS011;39559;48.630;9.162;2022-11-12T02:01:28;39.88;;;14.20;;
495;SDS011;39559;48.630;9.162;2022-11-12T02:03:55;41.75;;;16.15;;
495;SDS011;39559;48.630;9.162;2022-11-12T02:06:20;33.25;;;17.27;;
495;SDS011;39559;48.630;9.162;2022-11-12T02:08:47;23.65;;;13.75;;
495;SDS011;39559;48.630;9.162;2022-11-12T02:12:58;70.57;;;16.80;;
495;SDS011;39559;48.630;9.162;2022-11-12T02:15:42;77.47;;;18.58;;
495;SDS011;39559;48.630;9.162;2022-11-12T02:18:08;73.87;;;17.30;;
495;SDS011;39559;48.630;9.162;2022-11-12T02:20:37;59.93;;;17.83;;
495;SDS011;39559;48.630;9.162;2022-11-12T02:23:03;63.05;;;15.73;;
495;SDS011;39559;48.630;9.162;2022-11-12T02:25:30;67.45;;;18.80;;
495;SDS011;39559;48.630;9.162;2022-11-12T02:27:57;63.85;;;17.02;;
495;SDS011;39559;48.630;9.162;2022-11-12T02:30:33;67.03;;;17.27;;
495;SDS011;39559;48.630;9.162;2022-11-12T02:33:00;35.45;;;15.35;;
495;SDS011;39559;48.630;9.162;2022-11-12T02:36:58;29.40;;;15.50;;
495;SDS011;39559;48.630;9.162;2022-11-12T02:39:24;40.10;;;16.20;;
495;SDS011;39559;48.630;9.162;2022-11-12T02:41:49;42.67;;;16.33;;
495;SDS011;39559;48.630;9.162;2022-11-12T02:44:15;75.00;;;19.27;;
495;SDS011;39559;48.630;9.162;2022-11-12T02:46:40;49.23;;;16.47;;
495;SDS011;39559;48.630;9.162;2022-11-12T02:49:06;44.87;;;15.97;;
495;SDS011;39559;48.630;9.162;2022-11-12T02:51:32;59.67;;;18.13;;
495;SDS011;39559;48.630;9.162;2022-11-12T02:53:57;51.73;;;16.30;;
495;SDS011;39559;48.630;9.162;2022-11-12T02:56:22;41.13;;;15.93;;
495;SDS011;39559;48.630;9.162;2022-11-12T03:00:59;35.55;;;13.63;;
495;SDS011;39559;48.630;9.162;2022-11-12T03:03:25;52.40;;;16.73;;
495;SDS011;39559;48.630;9.162;2022-11-12T03:05:54;25.57;;;14.37;;
495;SDS011;39559;48.630;9.162;2022-11-12T03:08:24;30.20;;;15.45;;
495;SDS011;39559;48.630;9.162;2022-11-12T03:10:51;30.80;;;15.70;;
495;SDS011;39559;48.630;9.162;2022-11-12T03:13:17;31.40;;;16.13;;
495;SDS011;39559;48.630;9.162;2022-11-12T03:15:44;35.83;;;15.07;;
495;SDS011;39559;48.630;9.162;2022-11-12T03:18:10;27.23;;;14.30;;
495;SDS011;39559;48.630;9.162;2022-11-12T03:20:35;58.43;;;17.10;;
495;SDS011;39559;48.630;9.162;2022-11-12T03:24:59;29.88;;;13.25;;
495;SDS011;39559;48.630;9.162;2022-11-12T03:27:25;32.20;;;14.47;;
495;SDS011;39559;48.630;9.162;2022-11-12T03:29:50;26.67;;;13.00;;
495;SDS011;39559;48.630;9.162;2022-11-12T03:32:16;24.63;;;14.20;;
495;SDS011;39559;48.630;9.162;2022-11-12T03:34:41;19.63;;;13.20;;
495;SDS011;39559;48.630;9.162;2022-11-12T03:37:07;36.23;;;14.87;;
495;SDS011;39559;48.630;9.162;2022-11-12T03:39:34;33.00;;;14.68;;
495;SDS011;39559;48.630;9.162;2022-11-12T03:42:00;31.75;;;13.48;;
495;SDS011;39559;48.630;9.162;2022-11-12T03:44:26;30.27;;;13.40;;
495;SDS011;39559;48.630;9.162;2022-11-12T03:49:00;22.60;;;13.50;;
495;SDS011;39559;48.630;9.162;2022-11-12T03:51:26;27.98;;;13.55;;
495;SDS011;39559;48.630;9.162;2022-11-12T03:53:52;21.40;;;13.50;;
495;SDS011;39559;48.630;9.162;2022-11-12T03:56:17;25.67;;;13.50;;
495;SDS011;39559;48.630;9.162;2022-11-12T03:58:43;27.13;;;14.23;;
495;SDS011;39559;48.630;9.162;2022-11-12T04:01:08;25.50;;;12.37;;
495;SDS011;39559;48.630;9.162;2022-11-12T04:03:37;21.27;;;12.10;;
495;SDS011;39559;48.630;9.162;2022-11-12T04:06:02;31.08;;;12.57;;
495;SDS011;39559;48.630;9.162;2022-11-12T04:08:48;23.33;;;12.65;;
495;SDS011;39559;48.630;9.162;2022-11-12T04:13:02;15.85;;;10.85;;
495;SDS011;39559;48.630;9.162;2022-11-12T04:15:49;15.05;;;10.55;;
495;SDS011;39559;48.630;9.162;2022-11-12T04:18:34;17.85;;;10.65;;
495;SDS011;39559;48.630;9.162;2022-11-12T04:21:23;16.38;;;11.10;;
495;SDS011;39559;48.630;9.162;2022-11-12T04:24:22;24.10;;;12.10;;
495;SDS011;39559;48.630;9.162;2022-11-12T04:27:21;40.00;;;14.55;;
495;SDS011;39559;48.630;9.162;2022-11-12T04:29:51;40.60;;;12.30;;
495;SDS011;39559;48.630;9.162;2022-11-12T04:32:38;30.42;;;13.25;;
495;SDS011;39559;48.630;9.162;2022-11-12T04:37:07;18.17;;;10.88;;
495;SDS011;39559;48.630;9.162;2022-11-12T04:39:33;22.42;;;10.88;;
495;SDS011;39559;48.630;9.162;2022-11-12T04:41:59;16.93;;;10.80;;
495;SDS011;39559;48.630;9.162;2022-11-12T04:44:43;21.92;;;11.98;;
495;SDS011;39559;48.630;9.162;2022-11-12T04:47:25;18.60;;;11.05;;
495;SDS011;39559;48.630;9.162;2022-11-12T04:49:56;17.67;;;9.82;;
495;SDS011;39559;48.630;9.162;2022-11-12T04:52:22;21.25;;;10.77;;
495;SDS011;39559;48.630;9.162;2022-11-12T04:54:47;18.17;;;10.27;;
495;SDS011;39559;48.630;9.162;2022-11-12T04:57:13;16.85;;;10.80;;
495;SDS011;39559;48.630;9.162;2022-11-12T05:01:01;15.07;;;10.47;;
495;SDS011;39559;48.630;9.162;2022-11-12T05:03:27;15.00;;;10.35;;
495;SDS011;39559;48.630;9.162;2022-11-12T05:05:58;20.90;;;11.67;;
495;SDS011;39559;48.630;9.162;2022-11-12T05:08:25;35.42;;;12.13;;
495;SDS011;39559;48.630;9.162;2022-11-12T05:10:50;15.40;;;11.00;;
495;SDS011;39559;48.630;9.162;2022-11-12T05:13:16;17.40;;;10.87;;
495;SDS011;39559;48.630;9.162;2022-11-12T05:15:42;17.10;;;10.60;;
495;SDS011;39559;48.630;9.162;2022-11-12T05:18:08;30.10;;;12.25;;
495;SDS011;39559;48.630;9.162;2022-11-12T05:20:34;28.50;;;11.97;;
495;SDS011;39559;48.630;9.162;2022-11-12T05:25:04;17.67;;;10.50;;
495;SDS011;39559;48.630;9.162;2022-11-12T05:27:31;21.42;;;11.55;;
495;SDS011;39559;48.630;9.162;2022-11-12T05:29:56;69.60;;;15.27;;
495;SDS011;39559;48.630;9.162;2022-11-12T05:32:22;17.43;;;10.83;;
495;SDS011;39559;48.630;9.162;2022-11-12T05:34:47;19.27;;;10.67;;
495;SDS011;39559;48.630;9.162;2022-11-12T05:37:13;15.37;;;9.40;;
495;SDS011;39559;48.630;9.162;2022-11-12T05:39:39;11.23;;;9.27;;
495;SDS011;39559;48.630;9.162;2022-11-12T05:42:05;25.50;;;9.93;;
495;SDS011;39559;48.630;9.162;2022-11-12T05:44:31;19.17;;;10.25;;
495;SDS011;39559;48.630;9.162;2022-11-12T05:49:03;24.10;;;10.43;;
495;SDS011;39559;48.630;9.162;2022-11-12T05:51:28;12.27;;;10.33;;
495;SDS011;39559;48.630;9.162;2022-11-12T05:53:54;20.53;;;10.13;;
495;SDS011;39559;48.630;9.162;2022-11-12T05:56:19;14.30;;;9.20;;
495;SDS011;39559;48.630;9.162;2022-11-12T05:58:45;15.57;;;9.37;;
495;SDS011;39559;48.630;9.162;2022-11-12T06:01:10;14.57;;;8.50;;
495;SDS011;39559;48.630;9.162;2022-11-12T06:03:36;23.63;;;10.00;;
495;SDS011;39559;48.630;9.162;2022-11-12T06:06:01;21.33;;;9.40;;
495;SDS011;39559;48.630;9.162;2022-11-12T06:08:27;13.00;;;8.10;;
495;SDS011;39559;48.630;9.162;2022-11-12T06:13:06;41.10;;;10.25;;
495;SDS011;39559;48.630;9.162;2022-11-12T06:15:32;47.30;;;11.80;;
495;SDS011;39559;48.630;9.162;2022-11-12T06:17:57;22.67;;;8.30;;
495;SDS011;39559;48.630;9.162;2022-11-12T06:20:23;44.07;;;10.40;;
495;SDS011;39559;48.630;9.162;2022-11-12T06:22:48;15.17;;;9.50;;
495;SDS011;39559;48.630;9.162;2022-11-12T06:25:15;18.80;;;10.20;;
495;SDS011;39559;48.630;9.162;2022-11-12T06:27:41;19.73;;;9.90;;
495;SDS011;39559;48.630;9.162;2022-11-12T06:30:07;17.33;;;9.60;;
495;SDS011;39559;48.630;9.162;2022-11-12T06:32:33;17.42;;;9.25;;
495;SDS011;39559;48.630;9.162;2022-11-12T06:37:05;29.77;;;9.63;;
495;SDS011;39559;48.630;9.162;2022-11-12T06:39:30;34.83;;;11.00;;
495;SDS011;39559;48.630;9.162;2022-11-12T06:41:56;33.97;;;8.70;;
495;SDS011;39559;48.630;9.162;2022-11-12T06:44:21;48.97;;;9.80;;
495;SDS011;39559;48.630;9.162;2022-11-12T06:46:47;31.57;;;9.53;;
495;SDS011;39559;48.630;9.162;2022-11-12T06:49:12;27.33;;;9.83;;
495;SDS011;39559;48.630;9.162;2022-11-12T06:51:38;23.30;;;9.47;;
495;SDS011;39559;48.630;9.162;2022-11-12T06:54:04;32.20;;;11.27;;
495;SDS011;39559;48.630;9.162;2022-11-12T06:56:30;45.78;;;13.27;;
495;SDS011;39559;48.630;9.162;2022-11-12T07:01:12;45.42;;;15.60;;
495;SDS011;39559;48.630;9.162;2022-11-12T07:03:40;56.22;;;19.35;;
495;SDS011;39559;48.630;9.162;2022-11-12T07:06:07;41.90;;;17.05;;
495;SDS011;39559;48.630;9.162;2022-11-12T07:08:35;30.88;;;16.40;;
495;SDS011;39559;48.630;9.162;2022-11-12T07:11:01;61.22;;;18.63;;
495;SDS011;39559;48.630;9.162;2022-11-12T07:13:31;56.92;;;20.42;;
495;SDS011;39559;48.630;9.162;2022-11-12T07:15:58;41.38;;;16.27;;
495;SDS011;39559;48.630;9.162;2022-11-12T07:18:25;80.25;;;20.17;;
495;SDS011;39559;48.630;9.162;2022-11-12T07:20:56;46.40;;;13.93;;
495;SDS011;39559;48.630;9.162;2022-11-12T07:25:09;50.03;;;14.52;;
495;SDS011;39559;48.630;9.162;2022-11-12T07:27:34;42.37;;;11.77;;
495;SDS011;39559;48.630;9.162;2022-11-12T07:29:59;39.00;;;13.27;;
495;SDS011;39559;48.630;9.162;2022-11-12T07:32:25;63.97;;;14.40;;
495;SDS011;39559;48.630;9.162;2022-11-12T07:34:50;62.60;;;13.87;;
495;SDS011;39559;48.630;9.162;2022-11-12T07:37:16;62.70;;;13.27;;
495;SDS011;39559;48.630;9.162;2022-11-12T07:39:42;50.53;;;13.60;;
495;SDS011;39559;48.630;9.162;2022-11-12T07:42:07;39.33;;;13.33;;
495;SDS011;39559;48.630;9.162;2022-11-12T07:44:33;39.10;;;12.37;;
495;SDS011;39559;48.630;9.162;2022-11-12T07:49:10;42.92;;;13.07;;
495;SDS011;39559;48.630;9.162;2022-11-12T07:51:36;45.03;;;12.63;;
495;SDS011;39559;48.630;9.162;2022-11-12T07:54:01;62.03;;;13.57;;
495;SDS011;39559;48.630;9.162;2022-11-12T07:56:28;52.35;;;12.55;;
495;SDS011;39559;48.630;9.162;2022-11-12T07:58:54;71.83;;;14.20;;
495;SDS011;39559;48.630;9.162;2022-11-12T08:03:59;51.28;;;13.60;;
495;SDS011;39559;48.630;9.162;2022-11-12T08:06:26;56.75;;;12.98;;
495;SDS011;39559;48.630;9.162;2022-11-12T08:08:52;55.38;;;13.23;;
495;SDS011;39559;48.630;9.162;2022-11-12T08:13:09;105.77;;;18.00;;
495;SDS011;39559;48.630;9.162;2022-11-12T08:15:34;49.27;;;12.53;;
495;SDS011;39559;48.630;9.162;2022-11-12T08:18:00;41.43;;;12.20;;
495;SDS011;39559;48.630;9.162;2022-11-12T08:20:25;40.33;;;11.80;;
495;SDS011;39559;48.630;9.162;2022-11-12T08:22:51;20.13;;;10.73;;
495;SDS011;39559;48.630;9.162;2022-11-12T08:25:16;21.90;;;10.33;;
495;SDS011;39559;48.630;9.162;2022-11-12T08:27:43;48.45;;;11.90;;
495;SDS011;39559;48.630;9.162;2022-11-12T08:30:08;29.37;;;10.40;;
495;SDS011;39559;48.630;9.162;2022-11-12T08:32:34;30.73;;;11.48;;
495;SDS011;39559;48.630;9.162;2022-11-12T08:37:13;10.10;;;8.85;;
495;SDS011;39559;48.630;9.162;2022-11-12T08:39:38;14.17;;;9.87;;
495;SDS011;39559;48.630;9.162;2022-11-12T08:42:04;10.60;;;8.93;;
495;SDS011;39559;48.630;9.162;2022-11-12T08:44:29;11.57;;;9.50;;
495;SDS011;39559;48.630;9.162;2022-11-12T08:46:55;13.53;;;10.33;;
495;SDS011;39559;48.630;9.162;2022-11-12T08:49:20;11.30;;;8.83;;
495;SDS011;39559;48.630;9.162;2022-11-12T08:51:46;9.93;;;8.87;;
495;SDS011;39559;48.630;9.162;2022-11-12T08:54:11;21.30;;;11.60;;
495;SDS011;39559;48.630;9.162;2022-11-12T08:56:37;17.30;;;11.73;;
495;SDS011;39559;48.630;9.162;2022-11-12T09:01:13;19.52;;;10.90;;
495;SDS011;39559;48.630;9.162;2022-11-12T09:03:39;18.77;;;10.67;;
495;SDS011;39559;48.630;9.162;2022-11-12T09:06:04;13.10;;;10.70;;
495;SDS011;39559;48.630;9.162;2022-11-12T09:08:31;13.17;;;11.77;;
495;SDS011;39559;48.630;9.162;2022-11-12T09:10:58;11.25;;;10.05;;
495;SDS011;39559;48.630;9.162;2022-11-12T09:13:23;10.30;;;9.20;;
495;SDS011;39559;48.630;9.162;2022-11-12T09:15:49;10.10;;;9.10;;
495;SDS011;39559;48.630;9.162;2022-11-12T09:18:15;10.23;;;9.20;;
495;SDS011;39559;48.630;9.162;2022-11-12T09:20:42;10.20;;;9.15;;
495;SDS011;39559;48.630;9.162;2022-11-12T09:25:14;8.40;;;7.60;;
495;SDS011;39559;48.630;9.162;2022-11-12T09:27:40;8.40;;;7.60;;
495;SDS011;39559;48.630;9.162;2022-11-12T09:30:05;9.00;;;8.10;;
495;SDS011;39559;48.630;9.162;2022-11-12T09:32:31;8.48;;;7.68;;
495;SDS011;39559;48.630;9.162;2022-11-12T09:34:57;9.20;;;8.30;;
495;SDS011;39559;48.630;9.162;2022-11-12T09:37:23;7.80;;;7.10;;
495;SDS011;39559;48.630;9.162;2022-11-12T09:39:48;8.50;;;7.57;;
495;SDS011;39559;48.630;9.162;2022-11-12T09:42:15;7.70;;;7.00;;
495;SDS011;39559;48.630;9.162;2022-11-12T09:44:45;7.63;;;6.93;;
495;SDS011;39559;48.630;9.162;2022-11-12T09:49:19;8.25;;;7.32;;
495;SDS011;39559;48.630;9.162;2022-11-12T09:52:18;7.05;;;6.45;;
495;SDS011;39559;48.630;9.162;2022-11-12T09:54:42;6.00;;;5.50;;
495;SDS011;39559;48.630;9.162;2022-11-12T09:57:11;6.50;;;5.90;;
495;SDS011;39559;48.630;9.162;2022-11-12T09:59:38;7.90;;;7.10;;
495;SDS011;39559;48.630;9.162;2022-11-12T10:16:23;5.22;;;4.72;;
495;SDS011;39559;48.630;9.162;2022-11-12T10:24:32;5.57;;;5.18;;
495;SDS011;39559;48.630;9.162;2022-11-12T10:27:00;4.97;;;4.57;;
495;SDS011;39559;48.630;9.162;2022-11-12T10:29:46;5.30;;;4.80;;
495;SDS011;39559;48.630;9.162;2022-11-12T10:32:19;5.68;;;4.97;;
495;SDS011;39559;48.630;9.162;2022-11-12T10:37:27;5.40;;;4.90;;
495;SDS011;39559;48.630;9.162;2022-11-12T10:43:38;5.30;;;4.80;;
495;SDS011;39559;48.630;9.162;2022-11-12T10:45:42;5.22;;;4.72;;
495;SDS011;39559;48.630;9.162;2022-11-12T10:48:25;4.93;;;4.50;;
495;SDS011;39559;48.630;9.162;2022-11-12T10:50:53;5.20;;;4.80;;
495;SDS011;39559;48.630;9.162;2022-11-12T10:53:38;4.95;;;4.55;;
495;SDS011;39559;48.630;9.162;2022-11-12T10:56:08;4.97;;;4.57;;
495;SDS011;39559;48.630;9.162;2022-11-12T11:01:17;4.68;;;4.28;;
495;SDS011;39559;48.630;9.162;2022-11-12T11:03:55;5.60;;;4.30;;
495;SDS011;39559;48.630;9.162;2022-11-12T11:06:23;4.85;;;4.40;;
495;SDS011;39559;48.630;9.162;2022-11-12T11:08:51;4.50;;;4.10;;
495;SDS011;39559;48.630;9.162;2022-11-12T11:11:19;4.43;;;4.13;;
495;SDS011;39559;48.630;9.162;2022-11-12T11:13:46;4.30;;;4.00;;
495;SDS011;39559;48.630;9.162;2022-11-12T11:16:14;7.25;;;6.45;;
495;SDS011;39559;48.630;9.162;2022-11-12T11:18:44;6.80;;;6.03;;
495;SDS011;39559;48.630;9.162;2022-11-12T11:21:20;5.43;;;4.63;;
495;SDS011;39559;48.630;9.162;2022-11-12T11:25:18;5.18;;;4.68;;
495;SDS011;39559;48.630;9.162;2022-11-12T11:30:51;5.20;;;4.80;;
495;SDS011;39559;48.630;9.162;2022-11-12T11:42:01;4.97;;;4.57;;
495;SDS011;39559;48.630;9.162;2022-11-12T11:51:58;6.07;;;5.57;;
495;SDS011;39559;48.630;9.162;2022-11-12T11:54:42;5.70;;;5.23;;
495;SDS011;39559;48.630;9.162;2022-11-12T11:57:15;6.07;;;5.57;;
495;SDS011;39559;48.630;9.162;2022-11-12T12:05:57;6.07;;;5.57;;
495;SDS011;39559;48.630;9.162;2022-11-12T12:21:21;6.50;;;5.30;;
495;SDS011;39559;48.630;9.162;2022-11-12T12:24:03;8.20;;;5.65;;
495;SDS011;39559;48.630;9.162;2022-11-12T12:29:36;5.57;;;5.05;;
495;SDS011;39559;48.630;9.162;2022-11-12T12:32:13;5.47;;;4.97;;
495;SDS011;39559;48.630;9.162;2022-11-12T12:40:36;6.68;;;6.03;;
495;SDS011;39559;48.630;9.162;2022-11-12T12:45:51;7.25;;;6.10;;
495;SDS011;39559;48.630;9.162;2022-11-12T12:48:18;6.90;;;6.20;;
495;SDS011;39559;48.630;9.162;2022-11-12T12:50:47;9.35;;;8.35;;
495;SDS011;39559;48.630;9.162;2022-11-12T12:55:55;6.50;;;5.80;;
495;SDS011;39559;48.630;9.162;2022-11-12T12:58:27;8.75;;;7.93;;
495;SDS011;39559;48.630;9.162;2022-11-12T13:09:00;9.15;;;8.25;;
495;SDS011;39559;48.630;9.162;2022-11-12T13:17:04;8.63;;;7.72;;
495;SDS011;39559;48.630;9.162;2022-11-12T13:19:37;8.18;;;7.47;;
495;SDS011;39559;48.630;9.162;2022-11-12T13:32:55;8.98;;;8.18;;
495;SDS011;39559;48.630;9.162;2022-11-12T13:35:25;7.70;;;7.00;;
495;SDS011;39559;48.630;9.162;2022-11-12T13:49:14;8.25;;;7.53;;
495;SDS011;39559;48.630;9.162;2022-11-12T13:51:42;7.85;;;7.00;;
495;SDS011;39559;48.630;9.162;2022-11-12T13:54:53;8.30;;;7.50;;
495;SDS011;39559;48.630;9.162;2022-11-12T13:57:13;8.55;;;7.65;;
495;SDS011;39559;48.630;9.162;2022-11-12T13:59:45;7.80;;;7.10;;
495;SDS011;39559;48.630;9.162;2022-11-12T14:02:18;8.15;;;7.35;;
495;SDS011;39559;48.630;9.162;2022-11-12T14:04:47;8.82;;;8.02;;
495;SDS011;39559;48.630;9.162;2022-11-12T14:15:53;8.48;;;7.57;;
495;SDS011;39559;48.630;9.162;2022-11-12T14:18:33;9.73;;;8.45;;
495;SDS011;39559;48.630;9.162;2022-11-12T14:21:15;9.38;;;8.57;;
495;SDS011;39559;48.630;9.162;2022-11-12T14:23:43;10.10;;;8.50;;
495;SDS011;39559;48.630;9.162;2022-11-12T14:26:11;9.65;;;8.75;;
495;SDS011;39559;48.630;9.162;2022-11-12T14:28:38;10.55;;;7.97;;
495;SDS011;39559;48.630;9.162;2022-11-12T14:31:10;8.80;;;8.00;;
495;SDS011;39559;48.630;9.162;2022-11-12T14:33:37;9.57;;;8.68;;
495;SDS011;39559;48.630;9.162;2022-11-12T14:37:23;10.07;;;9.05;;
495;SDS011;39559;48.630;9.162;2022-11-12T14:40:00;10.25;;;7.93;;
495;SDS011;39559;48.630;9.162;2022-11-12T14:42:25;9.40;;;8.47;;
495;SDS011;39559;48.630;9.162;2022-11-12T14:44:59;9.30;;;8.38;;
495;SDS011;39559;48.630;9.162;2022-11-12T14:47:26;9.45;;;8.40;;
495;SDS011;39559;48.630;9.162;2022-11-12T14:49:51;10.20;;;9.20;;
495;SDS011;39559;48.630;9.162;2022-11-12T14:52:18;9.90;;;8.90;;
495;SDS011;39559;48.630;9.162;2022-11-12T14:54:53;9.20;;;8.35;;
495;SDS011;39559;48.630;9.162;2022-11-12T14:57:26;10.43;;;9.20;;
495;SDS011;39559;48.630;9.162;2022-11-12T15:01:18;10.00;;;9.00;;
495;SDS011;39559;48.630;9.162;2022-11-12T15:03:45;10.50;;;9.25;;
495;SDS011;39559;48.630;9.162;2022-11-12T15:06:11;10.97;;;9.90;;
495;SDS011;39559;48.630;9.162;2022-11-12T15:08:39;10.13;;;9.13;;
495;SDS011;39559;48.630;9.162;2022-11-12T15:13:43;10.70;;;9.70;;
495;SDS011;39559;48.630;9.162;2022-11-12T15:16:10;12.10;;;11.00;;
495;SDS011;39559;48.630;9.162;2022-11-12T15:18:42;13.35;;;11.55;;
495;SDS011;39559;48.630;9.162;2022-11-12T15:25:19;12.27;;;10.73;;
495;SDS011;39559;48.630;9.162;2022-11-12T15:27:47;12.13;;;10.85;;
495;SDS011;39559;48.630;9.162;2022-11-12T15:30:24;11.77;;;10.70;;
495;SDS011;39559;48.630;9.162;2022-11-12T15:35:40;9.85;;;8.85;;
495;SDS011;39559;48.630;9.162;2022-11-12T15:38:45;9.77;;;8.85;;
495;SDS011;39559;48.630;9.162;2022-11-12T15:41:02;9.60;;;8.70;;
495;SDS011;39559;48.630;9.162;2022-11-12T15:43:29;11.02;;;9.93;;
495;SDS011;39559;48.630;9.162;2022-11-12T15:45:59;9.80;;;8.90;;
495;SDS011;39559;48.630;9.162;2022-11-12T15:49:11;11.20;;;9.90;;
495;SDS011;39559;48.630;9.162;2022-11-12T15:51:37;12.73;;;11.00;;
495;SDS011;39559;48.630;9.162;2022-11-12T15:54:02;11.50;;;10.17;;
495;SDS011;39559;48.630;9.162;2022-11-12T15:56:28;14.57;;;13.07;;
495;SDS011;39559;48.630;9.162;2022-11-12T15:58:54;10.60;;;9.60;;
495;SDS011;39559;48.630;9.162;2022-11-12T16:01:21;16.95;;;15.15;;
495;SDS011;39559;48.630;9.162;2022-11-12T16:03:47;13.73;;;12.33;;
495;SDS011;39559;48.630;9.162;2022-11-12T16:06:12;12.90;;;10.83;;
495;SDS011;39559;48.630;9.162;2022-11-12T16:08:37;11.60;;;10.40;;
495;SDS011;39559;48.630;9.162;2022-11-12T16:13:10;14.35;;;12.43;;
495;SDS011;39559;48.630;9.162;2022-11-12T16:15:43;12.05;;;10.90;;
495;SDS011;39559;48.630;9.162;2022-11-12T16:18:09;11.43;;;10.27;;
495;SDS011;39559;48.630;9.162;2022-11-12T16:20:36;11.02;;;9.88;;
495;SDS011;39559;48.630;9.162;2022-11-12T16:23:01;11.90;;;10.63;;
495;SDS011;39559;48.630;9.162;2022-11-12T16:25:28;12.90;;;10.83;;
495;SDS011;39559;48.630;9.162;2022-11-12T16:27:56;16.20;;;13.10;;
495;SDS011;39559;48.630;9.162;2022-11-12T16:30:26;17.05;;;15.25;;
495;SDS011;39559;48.630;9.162;2022-11-12T16:32:56;13.98;;;11.98;;
495;SDS011;39559;48.630;9.162;2022-11-12T16:37:07;13.20;;;10.68;;
495;SDS011;39559;48.630;9.162;2022-11-12T16:39:36;16.65;;;13.20;;
495;SDS011;39559;48.630;9.162;2022-11-12T16:42:02;15.80;;;13.77;;
495;SDS011;39559;48.630;9.162;2022-11-12T16:44:27;50.40;;;34.00;;
495;SDS011;39559;48.630;9.162;2022-11-12T16:46:53;26.77;;;19.63;;
495;SDS011;39559;48.630;9.162;2022-11-12T16:49:18;20.10;;;13.97;;
495;SDS011;39559;48.630;9.162;2022-11-12T16:51:45;13.05;;;11.65;;
495;SDS011;39559;48.630;9.162;2022-11-12T16:54:11;17.00;;;12.90;;
495;SDS011;39559;48.630;9.162;2022-11-12T16:56:36;13.23;;;11.77;;
495;SDS011;39559;48.630;9.162;2022-11-12T17:01:04;24.88;;;19.60;;
495;SDS011;39559;48.630;9.162;2022-11-12T17:03:30;18.97;;;15.33;;
495;SDS011;39559;48.630;9.162;2022-11-12T17:05:55;16.83;;;13.53;;
495;SDS011;39559;48.630;9.162;2022-11-12T17:08:21;17.23;;;14.17;;
495;SDS011;39559;48.630;9.162;2022-11-12T17:10:46;54.10;;;36.17;;
495;SDS011;39559;48.630;9.162;2022-11-12T17:13:13;36.30;;;26.50;;
495;SDS011;39559;48.630;9.162;2022-11-12T17:15:39;21.40;;;17.45;;
495;SDS011;39559;48.630;9.162;2022-11-12T17:18:04;21.60;;;17.30;;
495;SDS011;39559;48.630;9.162;2022-11-12T17:20:31;66.47;;;48.72;;
495;SDS011;39559;48.630;9.162;2022-11-12T17:25:03;17.35;;;14.68;;
495;SDS011;39559;48.630;9.162;2022-11-12T17:27:29;16.80;;;13.88;;
495;SDS011;39559;48.630;9.162;2022-11-12T17:29:55;20.43;;;17.37;;
495;SDS011;39559;48.630;9.162;2022-11-12T17:32:20;56.83;;;35.30;;
495;SDS011;39559;48.630;9.162;2022-11-12T17:34:46;34.03;;;22.83;;
495;SDS011;39559;48.630;9.162;2022-11-12T17:37:11;20.00;;;15.43;;
495;SDS011;39559;48.630;9.162;2022-11-12T17:39:37;24.70;;;16.80;;
495;SDS011;39559;48.630;9.162;2022-11-12T17:42:02;31.20;;;20.80;;
495;SDS011;39559;48.630;9.162;2022-11-12T17:44:28;27.57;;;20.40;;
495;SDS011;39559;48.630;9.162;2022-11-12T17:49:02;18.45;;;14.68;;
495;SDS011;39559;48.630;9.162;2022-11-12T17:51:28;19.10;;;14.40;;
495;SDS011;39559;48.630;9.162;2022-11-12T17:53:54;23.27;;;17.70;;
495;SDS011;39559;48.630;9.162;2022-11-12T17:56:20;19.63;;;15.18;;
495;SDS011;39559;48.630;9.162;2022-11-12T17:58:47;23.35;;;16.33;;
495;SDS011;39559;48.630;9.162;2022-11-12T18:01:18;27.15;;;18.67;;
495;SDS011;39559;48.630;9.162;2022-11-12T18:03:49;22.67;;;16.38;;
495;SDS011;39559;48.630;9.162;2022-11-12T18:06:17;16.13;;;13.75;;
495;SDS011;39559;48.630;9.162;2022-11-12T18:08:45;20.10;;;13.70;;
495;SDS011;39559;48.630;9.162;2022-11-12T18:13:01;17.27;;;12.75;;
495;SDS011;39559;48.630;9.162;2022-11-12T18:15:29;19.63;;;13.63;;
495;SDS011;39559;48.630;9.162;2022-11-12T18:17:55;21.58;;;15.93;;
495;SDS011;39559;48.630;9.162;2022-11-12T18:20:20;17.73;;;13.40;;
495;SDS011;39559;48.630;9.162;2022-11-12T18:22:46;17.47;;;13.47;;
495;SDS011;39559;48.630;9.162;2022-11-12T18:25:12;21.90;;;16.43;;